Time;durP1;ratioP1;P1;durP2;ratioP2;P2;SDS_P1;SDS_P2;PMS_P1;PMS_P2;Temp;Humidity;BMP_temperature;BMP_pressure;BME280_temperature;BME280_humidity;BME280_pressure;Samples;Min_cycle;Max_cycle;Signal;HPM_P1;HPM_P2
2021/04/02 00:00:47;;;;;;;7.60;3.15;;;;;;;3.97;100.00;102623.38;3578377;32;20409;-62
2021/04/02 00:03:14;;;;;;;9.88;3.08;;;;;;;3.97;100.00;102633.19;3583881;32;20065;-62
2021/04/02 00:05:40;;;;;;;9.35;3.30;;;;;;;3.98;100.00;102629.59;3588220;32;20106;-62
2021/04/02 00:08:06;;;;;;;16.58;3.03;;;;;;;3.96;100.00;102626.09;3587277;32;20519;-62
2021/04/02 00:10:44;;;;;;;5.53;2.75;;;;;;;3.86;100.00;102625.56;3588899;32;20138;-61
2021/04/02 00:13:11;;;;;;;10.07;3.13;;;;;;;3.81;100.00;102630.13;3588288;32;20165;-60
2021/04/02 00:15:37;;;;;;;10.88;3.35;;;;;;;3.81;100.00;102633.69;3588744;32;20065;-61
2021/04/02 00:20:36;;;;;;;11.02;3.35;;;;;;;3.80;100.00;102633.75;3597260;32;20153;-61
2021/04/02 00:23:04;;;;;;;5.60;2.60;;;;;;;3.87;100.00;102632.59;3588125;39;20072;-61
2021/04/02 00:25:30;;;;;;;7.10;3.35;;;;;;;3.84;100.00;102633.59;3588701;32;20075;-61
2021/04/02 00:27:56;;;;;;;10.32;3.13;;;;;;;3.91;100.00;102630.72;3588168;32;20084;-62
2021/04/02 00:30:28;;;;;;;8.88;2.95;;;;;;;3.90;100.00;102635.19;3588825;32;20072;-61
2021/04/02 00:32:54;;;;;;;6.68;3.00;;;;;;;3.95;100.00;102632.38;3588498;40;20076;-61
2021/04/02 00:35:21;;;;;;;16.98;3.30;;;;;;;3.95;100.00;102627.06;3587997;32;20239;-61
2021/04/02 00:37:47;;;;;;;8.80;3.13;;;;;;;3.84;100.00;102628.25;3588842;32;20079;-61
2021/04/02 00:40:18;;;;;;;9.63;3.20;;;;;;;3.89;100.00;102624.56;3588044;32;20167;-61
2021/04/02 00:42:45;;;;;;;10.57;3.15;;;;;;;3.85;100.00;102629.13;3587834;32;20180;-61
2021/04/02 00:45:12;;;;;;;12.98;3.80;;;;;;;3.80;100.00;102637.25;3588124;32;20101;-61
2021/04/02 00:47:38;;;;;;;9.50;3.10;;;;;;;3.93;100.00;102623.53;3587925;32;20087;-62
2021/04/02 00:50:09;;;;;;;9.88;3.80;;;;;;;3.88;100.00;102625.50;3588230;32;20221;-61
2021/04/02 00:52:35;;;;;;;13.45;3.45;;;;;;;3.84;100.00;102628.25;3588214;32;20064;-61
2021/04/02 00:55:02;;;;;;;9.48;3.55;;;;;;;3.82;100.00;102630.09;3588150;32;20092;-62
2021/04/02 00:57:28;;;;;;;5.60;2.90;;;;;;;3.86;100.00;102628.22;3588179;39;20057;-61
2021/04/02 00:59:54;;;;;;;7.13;2.92;;;;;;;3.83;100.00;102620.31;3588165;32;20078;-61
2021/04/02 01:02:20;;;;;;;9.45;3.08;;;;;;;3.84;100.00;102622.94;3587614;32;20080;-62
2021/04/02 01:04:46;;;;;;;10.88;3.33;;;;;;;3.78;100.00;102623.09;3588503;32;20190;-61
2021/04/02 01:07:12;;;;;;;7.82;3.40;;;;;;;3.89;100.00;102632.53;3586695;32;20175;-62
2021/04/02 01:09:39;;;;;;;10.55;3.03;;;;;;;3.95;100.00;102624.38;3587701;32;20111;-61
2021/04/02 01:12:06;;;;;;;8.70;3.60;;;;;;;3.80;100.00;102637.25;3587212;32;20065;-60
2021/04/02 01:14:32;;;;;;;8.02;3.42;;;;;;;3.82;100.00;102634.56;3588015;32;20188;-61
2021/04/02 01:16:58;;;;;;;10.45;3.50;;;;;;;3.76;100.00;102635.63;3587470;40;20504;-62
2021/04/02 01:19:29;;;;;;;5.32;2.85;;;;;;;3.77;100.00;102623.16;3586856;32;20150;-62
2021/04/02 01:21:58;;;;;;;7.22;2.60;;;;;;;3.79;100.00;102621.34;3587642;32;20420;-62
2021/04/02 01:24:48;;;;;;;9.05;3.17;;;;;;;3.90;100.00;102627.19;3587131;32;20060;-61
2021/04/02 01:27:27;;;;;;;8.90;3.05;;;;;;;3.90;100.00;102634.31;3587529;32;20409;-62
2021/04/02 01:29:55;;;;;;;8.05;3.33;;;;;;;3.85;100.00;102624.66;3587335;32;20079;-61
2021/04/02 01:32:26;;;;;;;7.90;3.08;;;;;;;3.93;100.00;102626.22;3584163;32;20079;-61
2021/04/02 01:34:57;;;;;;;9.68;2.83;;;;;;;3.84;100.00;102624.72;3582648;32;20091;-60
2021/04/02 01:37:27;;;;;;;10.45;3.00;;;;;;;3.91;100.00;102622.72;3582196;32;20056;-62
2021/04/02 01:39:57;;;;;;;5.35;2.67;;;;;;;3.92;100.00;102614.69;3582222;32;20075;-61
2021/04/02 01:42:26;;;;;;;15.43;4.10;;;;;;;3.90;100.00;102623.66;3582283;32;20364;-61
2021/04/02 01:44:54;;;;;;;6.93;2.90;;;;;;;3.91;100.00;102620.06;3582521;32;20088;-61
2021/04/02 01:47:23;;;;;;;11.10;3.00;;;;;;;3.85;100.00;102614.00;3582815;32;20317;-61
2021/04/02 01:49:51;;;;;;;8.85;3.20;;;;;;;3.88;100.00;102612.19;3582607;32;20061;-61
2021/04/02 01:52:20;;;;;;;8.48;3.10;;;;;;;3.84;100.00;102614.06;3582643;32;20068;-61
2021/04/02 01:54:46;;;;;;;8.05;3.42;;;;;;;3.84;100.00;102617.59;3582410;32;20056;-62
2021/04/02 01:57:13;;;;;;;11.23;3.33;;;;;;;3.88;100.00;102626.34;3585581;32;20372;-60
2021/04/02 01:59:40;;;;;;;10.60;3.42;;;;;;;3.90;100.00;102620.97;3586650;39;20068;-62
2021/04/02 02:02:07;;;;;;;13.65;3.50;;;;;;;3.84;100.00;102622.03;3587317;32;20181;-61
2021/04/02 02:04:35;;;;;;;10.90;3.55;;;;;;;3.78;100.00;102623.09;3587683;39;20080;-61
2021/04/02 02:07:03;;;;;;;8.88;3.30;;;;;;;3.77;100.00;102626.72;3587343;32;20095;-61
2021/04/02 02:09:34;;;;;;;13.60;3.83;;;;;;;3.83;100.00;102628.31;3587359;32;20067;-61
2021/04/02 02:12:03;;;;;;;12.65;3.50;;;;;;;3.84;100.00;102620.28;3587569;32;20401;-61
2021/04/02 02:14:33;;;;;;;10.80;3.75;;;;;;;3.84;100.00;102622.94;3587764;32;20063;-61
2021/04/02 02:17:02;;;;;;;9.02;3.20;;;;;;;3.88;100.00;102622.84;3587831;32;20248;-61
2021/04/02 02:19:31;;;;;;;11.30;3.58;;;;;;;3.84;100.00;102622.94;3587886;32;20074;-62
2021/04/02 02:22:01;;;;;;;14.90;4.07;;;;;;;3.84;100.00;102617.59;3586837;32;20087;-62
2021/04/02 02:24:28;;;;;;;12.50;3.75;;;;;;;3.85;100.00;102615.81;3588212;32;20080;-61
2021/04/02 02:26:54;;;;;;;14.68;3.75;;;;;;;3.93;100.00;102615.56;3587620;32;20068;-61
2021/04/02 02:29:20;;;;;;;9.90;3.60;;;;;;;3.87;100.00;102616.63;3588116;32;20091;-61
2021/04/02 02:31:46;;;;;;;14.38;4.03;;;;;;;3.84;100.00;102609.63;3589122;32;20398;-61
2021/04/02 02:34:13;;;;;;;11.20;3.78;;;;;;;3.81;100.00;102614.16;3589328;32;20064;-61
2021/04/02 02:36:40;;;;;;;11.65;3.80;;;;;;;3.80;100.00;102610.63;3589394;32;20075;-60
2021/04/02 02:39:09;;;;;;;12.02;4.00;;;;;;;3.84;100.00;102616.72;3588900;32;20075;-61
2021/04/02 02:41:36;;;;;;;10.95;3.90;;;;;;;3.86;100.00;102614.91;3589050;32;20157;-61
2021/04/02 02:44:03;;;;;;;13.98;3.75;;;;;;;3.81;100.00;102617.72;3588909;32;20076;-62
2021/04/02 02:46:29;;;;;;;14.30;4.72;;;;;;;3.74;100.00;102617.94;3588851;39;20075;-60
2021/04/02 02:48:59;;;;;;;13.45;4.35;;;;;;;3.68;100.00;102616.31;3589162;32;20092;-60
2021/04/02 02:51:29;;;;;;;12.20;4.10;;;;;;;3.79;100.00;102608.88;3588044;32;20061;-61
2021/04/02 02:53:58;;;;;;;;;;;;;;;3.77;100.00;102613.41;3589858;32;20068;-62
2021/04/02 02:58:56;;;;;;;14.13;4.38;;;;;;;3.66;100.00;102618.19;3602973;34;20080;-60
2021/04/02 03:01:23;;;;;;;12.68;4.70;;;;;;;3.69;100.00;102610.09;3590366;32;20072;-61
2021/04/02 03:03:53;;;;;;;15.55;4.57;;;;;;;3.70;100.00;102603.84;3589712;32;20068;-61
2021/04/02 03:06:22;;;;;;;12.65;4.50;;;;;;;3.66;100.00;102605.72;3593444;32;20079;-61
2021/04/02 03:08:52;;;;;;;13.70;4.43;;;;;;;3.61;100.00;102598.81;3593402;32;20061;-62
2021/04/02 03:11:20;;;;;;;8.93;4.18;;;;;;;3.59;100.00;102603.31;3593075;32;20073;-60
2021/04/02 03:13:49;;;;;;;9.13;4.40;;;;;;;3.60;100.00;102610.38;3593769;32;20161;-61
2021/04/02 03:16:16;;;;;;;9.98;4.25;;;;;;;3.71;100.00;102610.94;3592357;32;20088;-61
2021/04/02 03:18:44;;;;;;;13.52;4.03;;;;;;;3.64;100.00;102604.91;3592835;32;20168;-60
2021/04/02 03:21:12;;;;;;;13.67;4.63;;;;;;;3.64;100.00;102609.38;3592027;40;20087;-61
2021/04/02 03:23:39;;;;;;;11.60;4.07;;;;;;;3.65;100.00;102605.78;3593120;32;20173;-61
2021/04/02 03:26:05;;;;;;;10.63;4.28;;;;;;;3.60;100.00;102607.72;3593749;32;20079;-61
2021/04/02 03:28:31;;;;;;;13.45;3.75;;;;;;;3.70;100.00;102603.84;3593110;32;20063;-61
2021/04/02 03:30:58;;;;;;;11.55;3.90;;;;;;;3.72;100.00;102607.31;3592911;32;20516;-61
2021/04/02 03:33:27;;;;;;;17.98;4.13;;;;;;;3.63;100.00;102605.81;3593152;32;20382;-61
2021/04/02 03:35:55;;;;;;;14.98;4.25;;;;;;;3.59;100.00;102609.53;3593917;32;20060;-61
2021/04/02 03:38:24;;;;;;;11.73;4.30;;;;;;;3.56;100.00;102616.72;3593544;32;20072;-61
2021/04/02 03:43:16;;;;;;;12.95;4.55;;;;;;;3.41;100.00;102613.59;3480315;34;20067;-61
2021/04/02 03:45:45;;;;;;;15.60;4.30;;;;;;;3.58;100.00;102620.19;3598887;32;20626;-62
2021/04/02 03:48:14;;;;;;;11.82;3.92;;;;;;;3.53;100.00;102622.16;3598642;32;20180;-60
2021/04/02 03:50:42;;;;;;;10.85;4.30;;;;;;;3.46;100.00;102617.00;3598982;32;20071;-60
2021/04/02 03:53:12;;;;;;;13.48;4.60;;;;;;;3.48;100.00;102617.81;3599573;32;20375;-60
2021/04/02 03:55:40;;;;;;;17.08;3.92;;;;;;;3.48;100.00;102616.97;3598182;32;20314;-60
2021/04/02 03:58:09;;;;;;;15.60;4.45;;;;;;;3.45;100.00;102615.25;3598229;32;20176;-61
2021/04/02 04:00:39;;;;;;;7.57;3.33;;;;;;;3.47;100.00;102618.72;3598379;32;20464;-61
2021/04/02 04:03:07;;;;;;;13.50;3.88;;;;;;;3.41;100.00;102618.94;3598349;32;20067;-61
2021/04/02 04:05:36;;;;;;;7.72;3.53;;;;;;;3.38;100.00;102616.34;3598788;32;20067;-61
2021/04/02 04:08:03;;;;;;;9.90;3.72;;;;;;;3.37;100.00;102621.72;3598010;32;20066;-61
2021/04/02 04:10:30;;;;;;;9.07;3.38;;;;;;;3.33;100.00;102620.97;3599120;32;20087;-60
2021/04/02 04:12:59;;;;;;;12.85;3.53;;;;;;;3.41;100.00;102618.94;3598201;39;20072;-60
2021/04/02 04:15:26;;;;;;;13.43;3.92;;;;;;;3.42;100.00;102617.16;3598852;32;20098;-61
2021/04/02 04:17:54;;;;;;;11.35;3.42;;;;;;;3.30;100.00;102621.91;3598831;39;20060;-59
2021/04/02 04:20:22;;;;;;;7.43;3.05;;;;;;;3.36;100.00;102625.31;3598699;32;20068;-60
2021/04/02 04:22:50;;;;;;;9.52;3.35;;;;;;;3.24;100.00;102631.84;3598672;32;20063;-61
2021/04/02 04:25:23;;;;;;;11.68;3.72;;;;;;;3.14;100.00;102624.16;3598362;32;20266;-60
2021/04/02 04:27:50;;;;;;;11.13;3.80;;;;;;;3.26;100.00;102622.06;3597696;32;20201;-60
2021/04/02 04:30:17;;;;;;;13.55;3.65;;;;;;;3.33;100.00;102623.63;3598179;32;20165;-61
2021/04/02 04:32:43;;;;;;;13.57;3.45;;;;;;;3.24;100.00;102621.22;3598387;32;20079;-61
2021/04/02 04:35:12;;;;;;;12.00;3.20;;;;;;;3.21;100.00;102627.53;3597964;32;20092;-60
2021/04/02 04:37:40;;;;;;;8.57;3.15;;;;;;;3.19;100.00;102617.84;3598112;39;20162;-60
2021/04/02 04:40:09;;;;;;;13.10;2.92;;;;;;;3.14;100.00;102626.81;3598155;32;20463;-60
2021/04/02 04:42:37;;;;;;;13.23;3.83;;;;;;;3.08;100.00;102627.00;3598337;32;20157;-61
2021/04/02 04:45:04;;;;;;;12.13;3.15;;;;;;;3.06;100.00;102617.31;3598684;32;20060;-62
2021/04/02 04:47:30;;;;;;;17.90;3.63;;;;;;;3.04;100.00;102621.81;3597821;32;20172;-60
2021/04/02 04:49:56;;;;;;;10.57;2.95;;;;;;;3.11;100.00;102628.72;3597510;32;20056;-60
2021/04/02 04:52:24;;;;;;;13.10;3.40;;;;;;;3.07;100.00;102632.38;3597099;32;20068;-60
2021/04/02 04:54:53;;;;;;;11.25;3.53;;;;;;;3.00;100.00;102629.00;3598291;32;20080;-61
2021/04/02 04:57:21;;;;;;;15.07;3.28;;;;;;;3.03;100.00;102623.56;3598608;32;20067;-61
2021/04/02 04:59:50;;;;;;;9.10;3.35;;;;;;;2.99;100.00;102629.94;3598891;32;20287;-60
2021/04/02 05:02:19;;;;;;;6.38;3.33;;;;;;;3.00;100.00;102622.81;3597869;32;20422;-60
2021/04/02 05:04:47;;;;;;;16.65;3.60;;;;;;;3.05;100.00;102637.72;3598601;32;20084;-60
2021/04/02 05:07:16;;;;;;;10.85;3.65;;;;;;;3.01;100.00;102636.06;3597302;39;20068;-61
2021/04/02 05:09:44;;;;;;;11.05;3.22;;;;;;;3.12;100.00;102633.97;3598477;32;20063;-61
2021/04/02 05:12:14;;;;;;;14.25;3.50;;;;;;;3.09;100.00;102634.06;3598753;32;20169;-61
2021/04/02 05:14:43;;;;;;;12.20;3.67;;;;;;;3.05;100.00;102631.50;3599034;32;20169;-61
2021/04/02 05:17:10;;;;;;;13.75;4.15;;;;;;;3.01;100.00;102632.53;3598356;32;20068;-61
2021/04/02 05:19:37;;;;;;;11.48;3.22;;;;;;;2.97;100.00;102639.72;3598475;32;20060;-61
2021/04/02 05:24:54;;;;;;;11.52;2.90;;;;;;;2.95;100.00;102638.91;3594456;32;20065;-62
2021/04/02 05:27:20;;;;;;;17.00;3.80;;;;;;;3.02;100.00;102643.13;3588279;32;20071;-61
2021/04/02 05:29:47;;;;;;;10.63;3.17;;;;;;;3.00;100.00;102639.63;3588907;32;20366;-61
2021/04/02 05:32:12;;;;;;;15.45;3.60;;;;;;;3.01;100.00;102641.38;3587084;32;20182;-61
2021/04/02 05:34:38;;;;;;;13.48;3.38;;;;;;;3.07;100.00;102640.34;3587285;32;20088;-60
2021/04/02 05:37:05;;;;;;;8.20;3.60;;;;;;;3.07;100.00;102635.88;3587907;32;20079;-62
2021/04/02 05:39:31;;;;;;;10.88;3.55;;;;;;;2.97;100.00;102634.41;3588134;32;20093;-61
2021/04/02 05:42:02;;;;;;;7.13;2.72;;;;;;;3.21;100.00;102643.50;3587617;32;20071;-61
2021/04/02 05:44:31;;;;;;;13.98;3.47;;;;;;;3.21;100.00;102650.56;3588286;32;20178;-61
2021/04/02 05:47:00;;;;;;;10.75;3.33;;;;;;;3.15;100.00;102654.28;3588465;32;20617;-62
2021/04/02 05:49:27;;;;;;;10.35;3.03;;;;;;;3.25;100.00;102645.13;3587531;32;20161;-62
2021/04/02 05:51:55;;;;;;;13.60;3.50;;;;;;;3.36;100.00;102642.16;3588523;32;20057;-61
2021/04/02 05:54:28;;;;;;;16.08;3.63;;;;;;;3.37;100.00;102643.88;3588142;32;20092;-60
2021/04/02 05:56:54;;;;;;;14.75;3.38;;;;;;;3.43;100.00;102641.06;3587925;32;20088;-61
2021/04/02 05:59:21;;;;;;;13.38;3.20;;;;;;;3.62;100.00;102651.13;3587257;32;20098;-61
2021/04/02 06:01:47;;;;;;;11.65;3.13;;;;;;;3.54;100.00;102648.72;3587316;32;20064;-61
2021/04/02 06:04:14;;;;;;;15.60;4.03;;;;;;;3.55;100.00;102649.56;3586980;32;20056;-61
2021/04/02 06:06:40;;;;;;;17.05;3.33;;;;;;;3.54;100.00;102651.38;3588093;32;20135;-61
2021/04/02 06:09:07;;;;;;;7.05;3.45;;;;;;;3.60;100.00;102650.31;3587209;32;20056;-60
2021/04/02 06:11:33;;;;;;;8.77;3.20;;;;;;;3.78;100.00;102644.41;3586819;32;20168;-61
2021/04/02 06:13:59;;;;;;;13.52;3.30;;;;;;;4.02;100.00;102653.44;3587315;32;20328;-61
2021/04/02 06:16:25;;;;;;;12.68;3.30;;;;;;;4.03;100.00;102649.84;3588199;32;20317;-61
2021/04/02 06:18:56;;;;;;;8.27;2.90;;;;;;;4.09;100.00;102648.75;3588219;32;20172;-62
2021/04/02 06:21:24;;;;;;;6.93;2.80;;;;;;;4.21;100.00;102648.38;3589142;32;20433;-61
2021/04/02 06:23:50;;;;;;;8.75;2.78;;;;;;;4.27;100.00;102646.41;3587575;32;20065;-62
2021/04/02 06:26:17;;;;;;;9.40;2.80;;;;;;;4.34;100.00;102647.97;3587649;32;20081;-63
2021/04/02 06:28:43;;;;;;;7.82;2.85;;;;;;;4.36;100.00;102648.78;3587738;32;20072;-62
2021/04/02 06:31:10;;;;;;;9.90;2.80;;;;;;;4.38;100.00;102644.28;3587751;32;20068;-63
2021/04/02 06:33:38;;;;;;;10.52;2.65;;;;;;;4.57;100.00;102650.72;3587899;32;20091;-62
2021/04/02 06:36:12;;;;;;;10.45;2.42;;;;;;;4.61;100.00;102655.94;3587504;32;20177;-62
2021/04/02 06:38:43;;;;;;;10.50;2.80;;;;;;;4.69;100.00;102659.22;3587184;32;20057;-62
2021/04/02 06:41:09;;;;;;;10.40;2.78;;;;;;;4.66;100.00;102662.00;3586834;32;20089;-62
2021/04/02 06:43:41;;;;;;;9.85;2.67;;;;;;;4.71;100.00;102662.69;3588216;32;20072;-62
2021/04/02 06:46:08;;;;;;;7.85;2.53;;;;;;;4.69;100.00;102660.06;3588022;32;20142;-63
2021/04/02 06:48:34;;;;;;;10.23;3.22;;;;;;;4.71;100.00;102662.69;3585601;32;20098;-61
2021/04/02 06:51:01;;;;;;;7.40;2.70;;;;;;;4.76;100.00;102671.41;3586103;32;20064;-63
2021/04/02 06:53:28;;;;;;;9.10;2.65;;;;;;;4.74;100.00;102665.25;3587255;32;20068;-62
2021/04/02 06:55:57;;;;;;;10.07;2.28;;;;;;;4.76;100.00;102668.75;3588202;32;20060;-63
2021/04/02 06:58:28;;;;;;;7.43;2.92;;;;;;;4.71;100.00;102663.59;3588053;32;20096;-63
2021/04/02 07:01:02;;;;;;;10.43;2.20;;;;;;;4.94;100.00;102669.03;3586534;32;20061;-62
2021/04/02 07:03:30;;;;;;;12.50;2.58;;;;;;;5.03;100.00;102671.34;3586522;32;20084;-61
2021/04/02 07:05:57;;;;;;;7.75;2.60;;;;;;;5.01;100.00;102667.88;3587490;32;20092;-62
2021/04/02 07:08:24;;;;;;;8.85;2.40;;;;;;;5.01;100.00;102676.75;3586632;32;20072;-62
2021/04/02 07:10:50;;;;;;;7.68;2.17;;;;;;;5.06;100.00;102672.13;3586980;32;20067;-60
2021/04/02 07:13:18;;;;;;;8.55;2.50;;;;;;;5.01;100.00;102676.75;3585363;32;20371;-63
2021/04/02 07:15:44;;;;;;;9.23;2.50;;;;;;;5.01;100.00;102689.22;3587549;32;20071;-62
2021/04/02 07:18:12;;;;;;;6.22;2.40;;;;;;;5.18;100.00;102684.16;3589514;32;20068;-62
2021/04/02 07:20:38;;;;;;;8.75;2.75;;;;;;;5.29;100.00;102690.91;3587998;32;20720;-63
2021/04/02 07:23:05;;;;;;;7.05;2.42;;;;;;;5.31;100.00;102683.69;3588258;32;20076;-62
2021/04/02 07:25:32;;;;;;;7.68;2.40;;;;;;;5.05;100.00;102682.84;3588974;32;20065;-61
2021/04/02 07:27:58;;;;;;;10.55;2.78;;;;;;;5.08;100.00;102691.63;3589638;32;20143;-62
2021/04/02 07:30:27;;;;;;;9.70;2.15;;;;;;;5.31;100.00;102699.72;3590464;32;20080;-62
2021/04/02 07:32:53;;;;;;;11.10;2.60;;;;;;;5.33;100.00;102697.84;3589674;32;20084;-62
2021/04/02 07:35:21;;;;;;;8.07;2.40;;;;;;;5.40;100.00;102697.59;3589038;32;20092;-62
2021/04/02 07:37:50;;;;;;;8.52;2.60;;;;;;;5.28;100.00;102699.84;3589480;32;20728;-62
2021/04/02 07:40:17;;;;;;;7.95;2.40;;;;;;;5.26;100.00;102703.41;3589703;32;20076;-63
2021/04/02 07:42:49;;;;;;;10.82;2.42;;;;;;;5.28;100.00;102700.69;3589797;32;20077;-62
2021/04/02 07:45:19;;;;;;;10.80;2.50;;;;;;;5.40;100.00;102699.38;3589426;32;20111;-63
2021/04/02 07:47:51;;;;;;;9.20;2.40;;;;;;;5.46;100.00;102699.13;3589506;32;20182;-62
2021/04/02 07:50:33;;;;;;;9.30;2.30;;;;;;;5.49;100.00;102699.03;3589676;32;20072;-63
2021/04/02 07:52:59;;;;;;;13.40;2.80;;;;;;;5.60;100.00;102699.50;3590322;32;20169;-62
2021/04/02 07:55:25;;;;;;;14.88;2.63;;;;;;;5.76;100.00;102696.25;3589932;32;20064;-62
2021/04/02 07:57:54;;;;;;;7.63;2.42;;;;;;;5.74;100.00;102700.75;3589964;32;20187;-62
2021/04/02 08:00:23;;;;;;;6.28;2.83;;;;;;;5.79;100.00;102709.47;3590588;32;20064;-62
2021/04/02 08:03:10;;;;;;;8.15;2.45;;;;;;;5.87;100.00;102701.16;3590159;32;20060;-62
2021/04/02 08:05:36;;;;;;;12.80;2.65;;;;;;;5.89;100.00;102702.84;3589602;32;20056;-63
2021/04/02 08:08:06;;;;;;;7.60;2.60;;;;;;;5.99;100.00;102691.81;3588578;32;20174;-62
2021/04/02 08:10:32;;;;;;;9.02;2.38;;;;;;;6.08;100.00;102700.34;3589741;32;20082;-62
2021/04/02 08:12:58;;;;;;;6.25;2.30;;;;;;;5.99;100.00;102707.84;3589901;32;20150;-62
2021/04/02 11:04:40;;;;;;;8.65;2.25;;;;;;;7.43;100.00;102705.31;3602708;34;20942;-62
2021/04/02 11:07:06;;;;;;;10.07;3.22;;;;;;;7.46;100.00;102700.69;3578364;32;20057;-62
2021/04/02 11:09:32;;;;;;;12.07;2.78;;;;;;;7.55;100.00;102715.47;3578990;32;20175;-63
2021/04/02 11:11:58;;;;;;;11.18;3.22;;;;;;;7.65;100.00;102716.78;3579823;32;20393;-63
2021/04/02 11:14:24;;;;;;;13.48;3.28;;;;;;;7.45;100.00;102693.59;3579286;32;20173;-63
2021/04/02 11:18:02;;;;;;;9.70;2.67;;;;;;;7.75;100.00;102694.94;3606710;32;20805;-63
2021/04/02 11:20:29;;;;;;;10.52;2.58;;;;;;;8.03;100.00;102689.97;3588297;32;20383;-62
2021/04/02 11:22:56;;;;;;;10.15;2.80;;;;;;;7.95;100.00;102699.31;3584978;32;20100;-62
2021/04/02 11:25:22;;;;;;;9.65;2.40;;;;;;;7.91;100.00;102690.56;3585356;32;20461;-61
2021/04/02 11:27:48;;;;;;;15.10;3.10;;;;;;;7.97;100.00;102687.59;3586998;32;20226;-63
2021/04/02 11:30:17;;;;;;;9.65;2.97;;;;;;;7.84;100.00;102689.97;3585675;32;20432;-63
2021/04/02 11:32:43;;;;;;;12.20;3.63;;;;;;;7.77;100.00;102687.66;3586644;32;20069;-61
2021/04/02 11:35:11;;;;;;;10.13;2.40;;;;;;;7.84;100.00;102687.28;3586533;32;20219;-62
2021/04/02 11:37:38;;;;;;;12.43;2.60;;;;;;;7.82;100.00;102685.66;3586564;32;20099;-62
2021/04/02 11:40:05;;;;;;;11.25;2.90;;;;;;;7.96;100.00;102677.78;3584914;32;20082;-63
2021/04/02 11:42:31;;;;;;;9.68;2.83;;;;;;;8.10;100.00;102684.28;3586453;32;20069;-63
2021/04/02 11:44:57;;;;;;;15.25;3.03;;;;;;;7.78;100.00;102684.91;3586613;32;20092;-63
2021/04/02 11:47:23;;;;;;;8.95;2.40;;;;;;;7.63;100.00;102691.00;3586987;32;20174;-61
2021/04/02 11:49:49;;;;;;;11.15;3.20;;;;;;;7.66;100.00;102681.00;3586814;32;20095;-61
2021/04/02 11:52:16;;;;;;;9.93;2.70;;;;;;;7.48;100.00;102687.22;3586550;32;20310;-62
2021/04/02 11:54:42;;;;;;;9.18;2.80;;;;;;;7.58;100.00;102688.53;3584395;32;20072;-63
2021/04/02 11:57:08;;;;;;;16.17;2.85;;;;;;;7.82;100.00;102682.97;3586317;32;20072;-62
2021/04/02 11:59:34;;;;;;;9.70;2.50;;;;;;;7.65;100.00;102698.00;3585937;39;20081;-61
2021/04/02 12:02:00;;;;;;;13.70;3.20;;;;;;;7.35;100.00;102692.28;3587034;32;20072;-61
2021/04/02 12:04:26;;;;;;;11.80;3.15;;;;;;;7.21;100.00;102694.72;3586102;32;20064;-62
2021/04/02 12:06:52;;;;;;;12.18;2.85;;;;;;;7.02;100.00;102695.50;3585814;32;20146;-62
2021/04/02 12:09:19;;;;;;;9.35;2.90;;;;;;;7.25;100.00;102699.00;3586337;32;20065;-61
2021/04/02 12:11:45;;;;;;;7.05;3.08;;;;;;;7.52;100.00;102692.38;3586117;32;20268;-62
2021/04/02 12:14:11;;;;;;;9.35;2.83;;;;;;;7.58;100.00;102696.56;3586295;32;20078;-62
2021/04/02 12:16:37;;;;;;;10.25;2.38;;;;;;;7.71;100.00;102695.06;3586576;32;20073;-60
2021/04/02 12:19:05;;;;;;;13.13;3.42;;;;;;;7.69;100.00;102706.81;3586929;32;20087;-61
2021/04/02 12:21:31;;;;;;;13.52;2.65;;;;;;;7.54;100.00;102695.84;3586958;32;20057;-62
2021/04/02 12:23:58;;;;;;;9.77;3.08;;;;;;;7.66;100.00;102675.66;3587093;32;20087;-61
2021/04/02 12:26:25;;;;;;;6.50;2.55;;;;;;;7.67;100.00;102681.84;3586445;32;20057;-63
2021/04/02 12:28:51;;;;;;;11.88;2.88;;;;;;;7.76;100.00;102676.09;3580407;32;20127;-61
2021/04/02 12:31:18;;;;;;;7.72;2.60;;;;;;;7.63;100.00;102681.16;3579583;32;20383;-61
2021/04/02 12:33:44;;;;;;;11.02;2.63;;;;;;;7.78;100.00;102684.91;3579461;32;20064;-61
2021/04/02 12:36:11;;;;;;;12.23;2.95;;;;;;;7.76;100.00;102678.78;3579301;32;20068;-62
2021/04/02 12:38:37;;;;;;;8.20;2.25;;;;;;;7.75;100.00;102674.34;3578592;32;20069;-61
2021/04/02 12:41:04;;;;;;;10.02;3.13;;;;;;;7.83;100.00;102672.19;3579914;32;20311;-62
2021/04/02 12:43:31;;;;;;;10.40;2.53;;;;;;;7.95;100.00;102670.72;3578236;32;20421;-61
2021/04/02 12:45:57;;;;;;;8.77;2.60;;;;;;;7.99;100.00;102669.59;3579929;32;20068;-61
2021/04/02 12:48:26;;;;;;;8.57;2.22;;;;;;;8.37;100.00;102658.78;3579145;32;20155;-61
2021/04/02 12:50:52;;;;;;;7.75;2.65;;;;;;;8.06;100.00;102651.41;3578553;32;20166;-62
2021/04/02 12:53:18;;;;;;;6.88;2.00;;;;;;;7.89;100.00;102655.78;3579599;32;20075;-60
2021/04/02 12:55:44;;;;;;;10.40;2.80;;;;;;;7.86;100.00;102660.41;3578276;32;20061;-62
2021/04/02 12:58:11;;;;;;;7.53;2.08;;;;;;;7.69;100.00;102659.41;3578405;32;20065;-63
2021/04/02 13:00:38;;;;;;;15.05;2.55;;;;;;;7.59;100.00;102658.13;3578796;39;20084;-61
2021/04/02 13:03:04;;;;;;;7.65;2.55;;;;;;;7.47;100.00;102647.97;3577471;32;20073;-63
2021/04/02 13:05:30;;;;;;;13.52;3.05;;;;;;;7.54;100.00;102650.28;3577406;32;20146;-61
2021/04/02 13:07:56;;;;;;;10.63;2.50;;;;;;;7.65;100.00;102662.31;3579492;32;20080;-60
2021/04/02 13:10:24;;;;;;;5.70;2.00;;;;;;;7.64;100.00;102661.47;3578681;32;20122;-61
2021/04/02 13:12:51;;;;;;;9.05;2.60;;;;;;;7.67;100.00;102661.31;3579572;32;20149;-61
2021/04/02 13:15:18;;;;;;;10.68;2.35;;;;;;;7.55;100.00;102661.88;3577103;32;20068;-61
2021/04/02 13:17:47;;;;;;;8.27;2.40;;;;;;;7.58;100.00;102655.50;3579018;32;20379;-61
2021/04/02 13:20:16;;;;;;;5.75;2.47;;;;;;;7.76;100.00;102656.44;3578631;32;20068;-61
2021/04/02 13:22:42;;;;;;;7.43;2.50;;;;;;;7.69;100.00;102646.00;3578626;32;20065;-61
2021/04/02 13:25:09;;;;;;;6.65;2.50;;;;;;;7.88;100.00;102645.13;3578232;32;20062;-61
2021/04/02 13:27:36;;;;;;;5.93;1.65;;;;;;;7.81;100.00;102654.41;3579302;39;20529;-61
2021/04/02 13:30:09;;;;;;;9.70;2.05;;;;;;;7.65;100.00;102648.91;3577642;32;20096;-61
2021/04/02 13:32:35;;;;;;;6.53;2.05;;;;;;;7.56;100.00;102655.56;3578680;32;20065;-62
2021/04/02 13:35:03;;;;;;;7.60;1.90;;;;;;;7.15;100.00;102650.31;3578308;39;20070;-61
2021/04/02 13:37:28;;;;;;;6.90;1.80;;;;;;;7.40;100.00;102636.66;3583509;32;20068;-61
2021/04/02 13:39:54;;;;;;;10.10;1.98;;;;;;;7.48;100.00;102645.22;3588787;32;20391;-61
2021/04/02 13:42:20;;;;;;;12.48;2.28;;;;;;;7.75;100.00;102642.19;3589322;32;20558;-61
2021/04/02 13:47:19;;;;;;;8.40;2.30;;;;;;;8.05;100.00;102638.94;3603556;32;20083;-63
2021/04/02 13:49:45;;;;;;;10.07;1.95;;;;;;;8.00;100.00;102636.47;3603259;32;20067;-61
2021/04/02 13:52:12;;;;;;;9.50;1.63;;;;;;;7.99;100.00;102632.06;3603632;32;20072;-62
2021/04/02 13:54:38;;;;;;;10.95;1.98;;;;;;;7.91;100.00;102625.38;3603870;32;20066;-62
2021/04/02 13:57:05;;;;;;;5.88;2.08;;;;;;;7.94;100.00;102620.69;3603471;32;20060;-62
2021/04/02 13:59:31;;;;;;;9.82;2.25;;;;;;;7.81;100.00;102615.06;3604255;32;20082;-61
2021/04/02 14:04:26;;;;;;;17.92;4.60;;;;;;;7.74;100.00;102616.31;3609002;31;20063;-62
2021/04/02 14:06:52;;;;;;;12.65;2.50;;;;;;;7.55;100.00;102610.97;3609757;31;20098;-62
2021/04/02 14:09:19;;;;;;;10.63;2.70;;;;;;;7.56;100.00;102604.66;3609164;31;20083;-62
2021/04/02 14:11:45;;;;;;;8.93;1.90;;;;;;;7.71;100.00;102605.72;3609598;31;20177;-61
2021/04/02 14:14:11;;;;;;;8.38;2.70;;;;;;;7.86;100.00;102594.28;3609777;31;20379;-62
2021/04/02 14:16:37;;;;;;;8.77;2.05;;;;;;;7.84;100.00;102598.81;3609180;31;20129;-62
2021/04/02 14:19:03;;;;;;;9.30;2.00;;;;;;;7.97;100.00;102599.09;3608308;31;20083;-62
2021/04/02 14:21:29;;;;;;;10.05;2.17;;;;;;;7.76;100.00;102597.47;3606685;31;20086;-63
2021/04/02 14:23:55;;;;;;;8.43;2.05;;;;;;;7.94;100.00;102604.63;3607761;31;20059;-62
2021/04/02 14:26:21;;;;;;;9.32;1.50;;;;;;;7.68;100.00;102593.34;3608166;31;20111;-61
2021/04/02 14:28:48;;;;;;;5.03;1.98;;;;;;;7.54;100.00;102606.56;3608792;31;20066;-63